sensor_id;sensor_type;location;lat;lon;timestamp;pressure;altitude;pressure_sealevel;temperature;humidity
8653;BME280;4364;52.426;9.424;2023-05-02T00:01:09;101123.47;;;11.69;66.75
8653;BME280;4364;52.426;9.424;2023-05-02T00:03:35;101118.03;;;11.69;66.70
8653;BME280;4364;52.426;9.424;2023-05-02T00:06:02;101120.22;;;11.67;66.93
8653;BME280;4364;52.426;9.424;2023-05-02T00:08:29;101128.91;;;11.64;67.05
8653;BME280;4364;52.426;9.424;2023-05-02T00:10:56;101121.03;;;11.62;67.53
8653;BME280;4364;52.426;9.424;2023-05-02T00:13:22;101127.84;;;11.65;67.55
8653;BME280;4364;52.426;9.424;2023-05-02T00:15:49;101132.47;;;11.70;67.72
8653;BME280;4364;52.426;9.424;2023-05-02T00:18:15;101128.09;;;11.68;68.04
8653;BME280;4364;52.426;9.424;2023-05-02T00:20:42;101123.47;;;11.64;68.31
8653;BME280;4364;52.426;9.424;2023-05-02T00:23:08;101119.41;;;11.56;68.85
8653;BME280;4364;52.426;9.424;2023-05-02T00:25:45;101121.03;;;11.62;68.45
8653;BME280;4364;52.426;9.424;2023-05-02T00:28:11;101119.66;;;11.65;69.15
8653;BME280;4364;52.426;9.424;2023-05-02T00:30:45;101123.75;;;11.67;69.25
8653;BME280;4364;52.426;9.424;2023-05-02T00:33:13;101121.59;;;11.64;70.02
8653;BME280;4364;52.426;9.424;2023-05-02T00:35:41;101118.56;;;11.61;70.17
8653;BME280;4364;52.426;9.424;2023-05-02T00:38:08;101122.66;;;11.58;70.53
8653;BME280;4364;52.426;9.424;2023-05-02T00:40:45;101121.56;;;11.54;71.28
8653;BME280;4364;52.426;9.424;2023-05-02T00:43:12;101124.03;;;11.56;71.25
8653;BME280;4364;52.426;9.424;2023-05-02T00:45:41;101130.03;;;11.63;71.42
8653;BME280;4364;52.426;9.424;2023-05-02T00:48:09;101118.56;;;11.61;71.65
8653;BME280;4364;52.426;9.424;2023-05-02T00:50:38;101124.28;;;11.54;71.57
8653;BME280;4364;52.426;9.424;2023-05-02T00:53:06;101128.94;;;11.59;71.92
8653;BME280;4364;52.426;9.424;2023-05-02T00:55:34;101130.84;;;11.53;72.38
8653;BME280;4364;52.426;9.424;2023-05-02T00:58:15;101126.75;;;11.56;71.79
8653;BME280;4364;52.426;9.424;2023-05-02T01:12:17;101127.81;;;11.39;73.59
8653;BME280;4364;52.426;9.424;2023-05-02T01:14:50;101134.13;;;11.45;73.55
8653;BME280;4364;52.426;9.424;2023-05-02T01:17:19;101132.19;;;11.40;74.16
8653;BME280;4364;52.426;9.424;2023-05-02T01:19:53;101133.84;;;11.41;74.49
8653;BME280;4364;52.426;9.424;2023-05-02T01:22:21;101136.25;;;11.32;74.90
8653;BME280;4364;52.426;9.424;2023-05-02T01:25:18;101134.91;;;11.30;75.23
8653;BME280;4364;52.426;9.424;2023-05-02T01:30:16;101146.34;;;11.37;74.67
8653;BME280;4364;52.426;9.424;2023-05-02T01:32:46;101147.72;;;11.24;76.19
8653;BME280;4364;52.426;9.424;2023-05-02T01:35:15;101152.59;;;11.22;77.97
8653;BME280;4364;52.426;9.424;2023-05-02T01:37:45;101151.25;;;11.20;79.78
8653;BME280;4364;52.426;9.424;2023-05-02T01:40:17;101152.56;;;11.07;81.04
8653;BME280;4364;52.426;9.424;2023-05-02T01:42:46;101150.13;;;11.00;82.24
8653;BME280;4364;52.426;9.424;2023-05-02T01:45:15;101158.53;;;10.99;83.46
8653;BME280;4364;52.426;9.424;2023-05-02T01:47:43;101151.69;;;10.86;84.91
8653;BME280;4364;52.426;9.424;2023-05-02T01:50:14;101161.78;;;10.96;85.07
8653;BME280;4364;52.426;9.424;2023-05-02T01:52:43;101161.47;;;10.77;85.68
8653;BME280;4364;52.426;9.424;2023-05-02T01:55:12;101165.53;;;10.79;86.01
8653;BME280;4364;52.426;9.424;2023-05-02T01:57:42;101169.38;;;10.78;85.66
8653;BME280;4364;52.426;9.424;2023-05-02T02:00:10;101171.25;;;10.72;85.98
8653;BME280;4364;52.426;9.424;2023-05-02T02:02:41;101170.72;;;10.81;85.35
8653;BME280;4364;52.426;9.424;2023-05-02T02:05:09;101172.09;;;10.78;86.04
8653;BME280;4364;52.426;9.424;2023-05-02T02:07:38;101177.28;;;10.80;85.98
8653;BME280;4364;52.426;9.424;2023-05-02T02:10:05;101186.50;;;10.79;85.81
8653;BME280;4364;52.426;9.424;2023-05-02T02:12:41;101180.00;;;10.85;85.54
8653;BME280;4364;52.426;9.424;2023-05-02T02:17:44;101183.25;;;10.87;85.61
8653;BME280;4364;52.426;9.424;2023-05-02T02:20:12;101189.25;;;10.89;85.67
8653;BME280;4364;52.426;9.424;2023-05-02T02:22:42;101180.00;;;10.90;85.28
8653;BME280;4364;52.426;9.424;2023-05-02T02:25:14;101190.34;;;10.88;85.21
8653;BME280;4364;52.426;9.424;2023-05-02T02:27:41;101191.72;;;10.90;85.76
8653;BME280;4364;52.426;9.424;2023-05-02T02:30:08;101197.66;;;10.82;85.71
8653;BME280;4364;52.426;9.424;2023-05-02T02:32:36;101203.63;;;10.74;86.48
8653;BME280;4364;52.426;9.424;2023-05-02T02:35:04;101199.28;;;10.78;86.88
8653;BME280;4364;52.426;9.424;2023-05-02T02:37:34;101197.94;;;10.81;86.82
8653;BME280;4364;52.426;9.424;2023-05-02T02:42:43;101202.56;;;10.85;87.22
8653;BME280;4364;52.426;9.424;2023-05-02T02:51:12;101211.84;;;10.89;87.38
8653;BME280;4364;52.426;9.424;2023-05-02T02:54:07;101213.16;;;10.77;88.34
8653;BME280;4364;52.426;9.424;2023-05-02T02:56:58;101211.03;;;10.89;88.06
8653;BME280;4364;52.426;9.424;2023-05-02T02:59:34;101214.81;;;10.83;88.15
8653;BME280;4364;52.426;9.424;2023-05-02T03:02:08;101216.94;;;10.75;89.49
8653;BME280;4364;52.426;9.424;2023-05-02T03:04:40;101223.75;;;10.73;89.95
8653;BME280;4364;52.426;9.424;2023-05-02T03:07:10;101219.16;;;10.84;89.22
8653;BME280;4364;52.426;9.424;2023-05-02T03:09:41;101227.03;;;10.80;89.19
8653;BME280;4364;52.426;9.424;2023-05-02T03:12:10;101226.22;;;10.74;89.71
8653;BME280;4364;52.426;9.424;2023-05-02T03:14:39;101229.19;;;10.73;89.29
8653;BME280;4364;52.426;9.424;2023-05-02T03:17:06;101233.22;;;10.65;90.09
8653;BME280;4364;52.426;9.424;2023-05-02T03:19:35;101231.38;;;10.71;90.01
8653;BME280;4364;52.426;9.424;2023-05-02T03:22:04;101234.38;;;10.74;90.18
8653;BME280;4364;52.426;9.424;2023-05-02T03:24:33;101240.34;;;10.77;90.16
8653;BME280;4364;52.426;9.424;2023-05-02T03:26:59;101239.03;;;10.84;89.87
8653;BME280;4364;52.426;9.424;2023-05-02T03:29:32;101232.75;;;10.79;90.13
8653;BME280;4364;52.426;9.424;2023-05-02T03:31:59;101237.09;;;10.74;90.49
8653;BME280;4364;52.426;9.424;2023-05-02T03:34:26;101252.03;;;10.72;90.92
8653;BME280;4364;52.426;9.424;2023-05-02T03:36:53;101243.09;;;10.77;90.60
8653;BME280;4364;52.426;9.424;2023-05-02T03:39:20;101246.31;;;10.68;91.22
8653;BME280;4364;52.426;9.424;2023-05-02T03:41:47;101253.13;;;10.71;90.98
8653;BME280;4364;52.426;9.424;2023-05-02T03:44:17;101252.25;;;10.65;91.59
8653;BME280;4364;52.426;9.424;2023-05-02T03:46:43;101253.06;;;10.66;92.74
8653;BME280;4364;52.426;9.424;2023-05-02T03:49:11;101251.97;;;10.62;92.82
8653;BME280;4364;52.426;9.424;2023-05-02T03:51:42;101260.41;;;10.60;93.84
8653;BME280;4364;52.426;9.424;2023-05-02T03:54:08;101259.56;;;10.54;94.74
8653;BME280;4364;52.426;9.424;2023-05-02T03:56:38;101257.38;;;10.56;95.60
8653;BME280;4364;52.426;9.424;2023-05-02T03:59:18;101261.41;;;10.49;97.36
8653;BME280;4364;52.426;9.424;2023-05-02T04:01:48;101269.31;;;10.50;98.02
8653;BME280;4364;52.426;9.424;2023-05-02T04:04:17;101270.19;;;10.56;97.43
8653;BME280;4364;52.426;9.424;2023-05-02T04:06:48;101275.63;;;10.56;98.41
8653;BME280;4364;52.426;9.424;2023-05-02T04:09:15;101278.22;;;10.41;100.00
8653;BME280;4364;52.426;9.424;2023-05-02T04:11:49;101279.09;;;10.46;100.00
8653;BME280;4364;52.426;9.424;2023-05-02T04:14:17;101280.94;;;10.41;100.00
8653;BME280;4364;52.426;9.424;2023-05-02T04:16:48;101284.81;;;10.50;100.00
8653;BME280;4364;52.426;9.424;2023-05-02T04:19:20;101288.78;;;10.37;100.00
8653;BME280;4364;52.426;9.424;2023-05-02T04:21:47;101298.34;;;10.40;100.00
8653;BME280;4364;52.426;9.424;2023-05-02T04:24:15;101306.94;;;10.31;100.00
8653;BME280;4364;52.426;9.424;2023-05-02T04:26:41;101310.28;;;10.38;100.00
8653;BME280;4364;52.426;9.424;2023-05-02T04:29:10;101310.69;;;10.25;100.00
8653;BME280;4364;52.426;9.424;2023-05-02T04:31:37;101310.69;;;10.25;100.00
8653;BME280;4364;52.426;9.424;2023-05-02T04:34:05;101315.06;;;10.26;100.00
8653;BME280;4364;52.426;9.424;2023-05-02T04:36:39;101323.22;;;10.26;100.00
8653;BME280;4364;52.426;9.424;2023-05-02T04:39:07;101329.13;;;10.18;100.00
8653;BME280;4364;52.426;9.424;2023-05-02T04:41:39;101330.22;;;10.22;100.00
8653;BME280;4364;52.426;9.424;2023-05-02T04:44:06;101338.81;;;10.09;100.00
8653;BME280;4364;52.426;9.424;2023-05-02T04:46:34;101343.91;;;10.00;100.00
8653;BME280;4364;52.426;9.424;2023-05-02T04:49:01;101359.09;;;9.96;100.00
8653;BME280;4364;52.426;9.424;2023-05-02T04:51:28;101364.09;;;9.82;100.00
8653;BME280;4364;52.426;9.424;2023-05-02T04:53:57;101368.69;;;9.54;100.00
8653;BME280;4364;52.426;9.424;2023-05-02T04:56:27;101380.44;;;9.38;100.00
8653;BME280;4364;52.426;9.424;2023-05-02T04:58:53;101383.03;;;9.27;100.00
8653;BME280;4364;52.426;9.424;2023-05-02T05:01:21;101402.44;;;9.19;99.82
8653;BME280;4364;52.426;9.424;2023-05-02T05:03:49;101406.72;;;9.15;99.77
8653;BME280;4364;52.426;9.424;2023-05-02T05:06:17;101407.06;;;9.02;98.78
8653;BME280;4364;52.426;9.424;2023-05-02T05:08:45;101422.28;;;9.03;98.47
8653;BME280;4364;52.426;9.424;2023-05-02T05:11:13;101428.13;;;8.95;98.41
8653;BME280;4364;52.426;9.424;2023-05-02T05:13:41;101432.41;;;8.90;97.70
8653;BME280;4364;52.426;9.424;2023-05-02T05:16:10;101438.50;;;8.98;98.42
8653;BME280;4364;52.426;9.424;2023-05-02T05:18:37;101437.56;;;8.75;98.41
8653;BME280;4364;52.426;9.424;2023-05-02T05:21:09;101441.06;;;8.87;98.20
8653;BME280;4364;52.426;9.424;2023-05-02T05:23:37;101443.59;;;8.77;97.98
8653;BME280;4364;52.426;9.424;2023-05-02T05:26:09;101454.84;;;8.69;98.82
8653;BME280;4364;52.426;9.424;2023-05-02T05:28:38;101448.50;;;8.63;97.63
8653;BME280;4364;52.426;9.424;2023-05-02T05:31:05;101458.63;;;8.68;97.26
8653;BME280;4364;52.426;9.424;2023-05-02T05:33:34;101474.16;;;8.56;97.22
8653;BME280;4364;52.426;9.424;2023-05-02T05:36:12;101472.72;;;8.53;96.90
8653;BME280;4364;52.426;9.424;2023-05-02T05:38:42;101475.84;;;8.45;96.87
8653;BME280;4364;52.426;9.424;2023-05-02T05:41:10;101479.25;;;8.52;97.06
8653;BME280;4364;52.426;9.424;2023-05-02T05:43:41;101484.66;;;8.40;97.42
8653;BME280;4364;52.426;9.424;2023-05-02T05:46:07;101490.69;;;8.42;97.66
8653;BME280;4364;52.426;9.424;2023-05-02T05:48:35;101500.00;;;8.34;96.71
8653;BME280;4364;52.426;9.424;2023-05-02T05:51:03;101503.53;;;8.35;96.13
8653;BME280;4364;52.426;9.424;2023-05-02T05:53:31;101508.47;;;8.38;95.89
8653;BME280;4364;52.426;9.424;2023-05-02T05:56:08;101510.28;;;8.32;94.84
8653;BME280;4364;52.426;9.424;2023-05-02T05:58:37;101520.03;;;8.33;92.96
8653;BME280;4364;52.426;9.424;2023-05-02T06:01:05;101528.53;;;8.37;92.78
8653;BME280;4364;52.426;9.424;2023-05-02T06:03:32;101539.50;;;8.30;92.57
8653;BME280;4364;52.426;9.424;2023-05-02T06:05:59;101532.78;;;8.33;91.19
8653;BME280;4364;52.426;9.424;2023-05-02T06:08:25;101542.59;;;8.22;89.59
8653;BME280;4364;52.426;9.424;2023-05-02T06:10:52;101539.41;;;8.25;89.11
8653;BME280;4364;52.426;9.424;2023-05-02T06:13:18;101535.06;;;8.24;88.61
8653;BME280;4364;52.426;9.424;2023-05-02T06:15:46;101548.50;;;8.19;87.36
8653;BME280;4364;52.426;9.424;2023-05-02T06:18:12;101555.34;;;8.10;87.45
8653;BME280;4364;52.426;9.424;2023-05-02T06:20:41;101558.53;;;8.19;87.54
8653;BME280;4364;52.426;9.424;2023-05-02T06:23:07;101558.81;;;8.34;86.44
8653;BME280;4364;52.426;9.424;2023-05-02T06:25:37;101557.50;;;8.37;85.40
8653;BME280;4364;52.426;9.424;2023-05-02T06:28:03;101572.13;;;8.35;84.94
8653;BME280;4364;52.426;9.424;2023-05-02T06:30:30;101568.22;;;8.43;85.48
8653;BME280;4364;52.426;9.424;2023-05-02T06:32:56;101577.97;;;8.56;85.27
8653;BME280;4364;52.426;9.424;2023-05-02T06:35:23;101583.09;;;8.69;83.34
8653;BME280;4364;52.426;9.424;2023-05-02T06:37:49;101584.00;;;8.75;82.06
8653;BME280;4364;52.426;9.424;2023-05-02T06:40:16;101581.91;;;8.77;81.86
8653;BME280;4364;52.426;9.424;2023-05-02T06:42:42;101581.06;;;8.77;79.93
8653;BME280;4364;52.426;9.424;2023-05-02T06:45:09;101589.66;;;8.85;79.23
8653;BME280;4364;52.426;9.424;2023-05-02T06:47:36;101596.97;;;9.02;77.87
8653;BME280;4364;52.426;9.424;2023-05-02T06:50:03;101596.97;;;9.02;76.61
8653;BME280;4364;52.426;9.424;2023-05-02T06:52:29;101603.41;;;8.96;77.38
8653;BME280;4364;52.426;9.424;2023-05-02T06:54:56;101614.81;;;8.98;77.73
8653;BME280;4364;52.426;9.424;2023-05-02T06:57:23;101625.84;;;9.08;76.38
8653;BME280;4364;52.426;9.424;2023-05-02T06:59:50;101637.03;;;9.12;75.19
8653;BME280;4364;52.426;9.424;2023-05-02T07:02:16;101643.69;;;9.04;76.37
8653;BME280;4364;52.426;9.424;2023-05-02T07:04:43;101644.84;;;9.08;75.65
8653;BME280;4364;52.426;9.424;2023-05-02T07:07:10;101643.78;;;9.09;76.27
8653;BME280;4364;52.426;9.424;2023-05-02T07:09:36;101650.44;;;9.18;75.08
8653;BME280;4364;52.426;9.424;2023-05-02T07:12:03;101650.19;;;9.20;75.45
8653;BME280;4364;52.426;9.424;2023-05-02T07:14:32;101658.44;;;9.25;74.96
8653;BME280;4364;52.426;9.424;2023-05-02T07:16:58;101662.00;;;9.25;74.06
8653;BME280;4364;52.426;9.424;2023-05-02T07:19:26;101662.47;;;9.22;74.52
8653;BME280;4364;52.426;9.424;2023-05-02T07:21:52;101668.47;;;9.24;73.70
8653;BME280;4364;52.426;9.424;2023-05-02T07:24:19;101667.28;;;9.20;73.50
8653;BME280;4364;52.426;9.424;2023-05-02T07:26:45;101678.66;;;9.17;73.33
8653;BME280;4364;52.426;9.424;2023-05-02T07:29:12;101680.44;;;9.12;72.50
8653;BME280;4364;52.426;9.424;2023-05-02T07:31:38;101688.06;;;8.98;73.32
8653;BME280;4364;52.426;9.424;2023-05-02T07:34:05;101690.97;;;9.08;73.95
8653;BME280;4364;52.426;9.424;2023-05-02T07:36:31;101692.06;;;8.95;72.44
8653;BME280;4364;52.426;9.424;2023-05-02T07:38:58;101701.81;;;8.79;72.46
8653;BME280;4364;52.426;9.424;2023-05-02T07:41:24;101707.56;;;8.83;71.93
8653;BME280;4364;52.426;9.424;2023-05-02T07:43:51;101711.84;;;8.79;71.87
8653;BME280;4364;52.426;9.424;2023-05-02T07:46:18;101710.91;;;8.73;72.34
8653;BME280;4364;52.426;9.424;2023-05-02T07:48:44;101712.31;;;8.76;72.61
8653;BME280;4364;52.426;9.424;2023-05-02T07:51:11;101707.00;;;8.81;72.19
8653;BME280;4364;52.426;9.424;2023-05-02T07:53:38;101718.53;;;8.88;71.71
8653;BME280;4364;52.426;9.424;2023-05-02T07:56:06;101713.91;;;8.88;71.12
8653;BME280;4364;52.426;9.424;2023-05-02T07:58:34;101708.84;;;8.92;71.08
8653;BME280;4364;52.426;9.424;2023-05-02T08:01:02;101722.03;;;8.88;70.78
8653;BME280;4364;52.426;9.424;2023-05-02T08:03:29;101725.69;;;8.94;71.25
8653;BME280;4364;52.426;9.424;2023-05-02T08:05:57;101726.91;;;8.86;71.48
8653;BME280;4364;52.426;9.424;2023-05-02T08:08:23;101723.81;;;8.95;70.20
8653;BME280;4364;52.426;9.424;2023-05-02T08:10:50;101733.41;;;8.85;70.30
8653;BME280;4364;52.426;9.424;2023-05-02T08:13:16;101739.13;;;9.01;69.76
8653;BME280;4364;52.426;9.424;2023-05-02T08:15:43;101742.09;;;8.99;69.61
8653;BME280;4364;52.426;9.424;2023-05-02T08:18:10;101756.22;;;9.01;70.32
8653;BME280;4364;52.426;9.424;2023-05-02T08:20:37;101754.22;;;8.97;69.43
8653;BME280;4364;52.426;9.424;2023-05-02T08:23:03;101752.59;;;8.96;70.12
8653;BME280;4364;52.426;9.424;2023-05-02T08:25:30;101763.25;;;8.85;70.03
8653;BME280;4364;52.426;9.424;2023-05-02T08:27:56;101758.88;;;8.73;70.21
8653;BME280;4364;52.426;9.424;2023-05-02T08:30:22;101761.16;;;8.64;70.84
8653;BME280;4364;52.426;9.424;2023-05-02T08:32:49;101777.88;;;8.61;71.50
8653;BME280;4364;52.426;9.424;2023-05-02T08:35:16;101770.69;;;8.55;71.36
8653;BME280;4364;52.426;9.424;2023-05-02T08:37:43;101780.97;;;8.52;71.24
8653;BME280;4364;52.426;9.424;2023-05-02T08:40:10;101785.56;;;8.52;71.16
8653;BME280;4364;52.426;9.424;2023-05-02T08:42:41;101790.69;;;8.42;71.66
8653;BME280;4364;52.426;9.424;2023-05-02T08:45:10;101792.97;;;8.57;71.52
8653;BME280;4364;52.426;9.424;2023-05-02T08:47:40;101801.81;;;8.64;70.98
8653;BME280;4364;52.426;9.424;2023-05-02T08:50:08;101795.31;;;8.77;71.10
8653;BME280;4364;52.426;9.424;2023-05-02T08:52:37;101794.97;;;8.61;70.26
8653;BME280;4364;52.426;9.424;2023-05-02T08:55:05;101807.47;;;8.74;69.30
8653;BME280;4364;52.426;9.424;2023-05-02T08:57:33;101804.88;;;8.67;69.33
8653;BME280;4364;52.426;9.424;2023-05-02T08:59:59;101816.53;;;8.68;69.00
8653;BME280;4364;52.426;9.424;2023-05-02T09:03:03;101812.50;;;8.94;67.18
8653;BME280;4364;52.426;9.424;2023-05-02T09:05:40;101826.28;;;9.04;66.01
8653;BME280;4364;52.426;9.424;2023-05-02T09:08:08;101829.25;;;9.03;66.21
8653;BME280;4364;52.426;9.424;2023-05-02T09:10:34;101835.13;;;9.12;65.05
8653;BME280;4364;52.426;9.424;2023-05-02T09:13:39;101832.34;;;9.35;64.68
8653;BME280;4364;52.426;9.424;2023-05-02T09:16:07;101834.09;;;9.41;63.28
8653;BME280;4364;52.426;9.424;2023-05-02T09:18:44;101842.88;;;9.60;63.10
8653;BME280;4364;52.426;9.424;2023-05-02T09:26:29;101852.13;;;9.76;61.00
8653;BME280;4364;52.426;9.424;2023-05-02T09:29:07;101847.25;;;9.61;60.47
8653;BME280;4364;52.426;9.424;2023-05-02T09:31:34;101850.19;;;9.60;60.76
8653;BME280;4364;52.426;9.424;2023-05-02T09:34:12;101853.34;;;9.69;60.26
8653;BME280;4364;52.426;9.424;2023-05-02T09:36:40;101857.09;;;9.79;59.27
8653;BME280;4364;52.426;9.424;2023-05-02T09:39:15;101857.38;;;9.95;59.04
8653;BME280;4364;52.426;9.424;2023-05-02T09:41:43;101859.25;;;9.94;58.93
8653;BME280;4364;52.426;9.424;2023-05-02T09:44:12;101860.59;;;10.09;58.08
8653;BME280;4364;52.426;9.424;2023-05-02T09:46:43;101858.56;;;10.16;57.81
8653;BME280;4364;52.426;9.424;2023-05-02T09:49:09;101868.25;;;10.29;57.12
8653;BME280;4364;52.426;9.424;2023-05-02T09:51:36;101866.03;;;10.09;57.54
8653;BME280;4364;52.426;9.424;2023-05-02T09:54:03;101872.16;;;10.16;56.91
8653;BME280;4364;52.426;9.424;2023-05-02T09:56:30;101873.88;;;10.22;57.89
8653;BME280;4364;52.426;9.424;2023-05-02T09:59:14;101871.59;;;10.31;56.75
8653;BME280;4364;52.426;9.424;2023-05-02T10:01:41;101892.72;;;10.29;56.28
8653;BME280;4364;52.426;9.424;2023-05-02T10:04:13;101883.97;;;10.38;56.00
8653;BME280;4364;52.426;9.424;2023-05-02T10:06:44;101888.25;;;10.51;55.77
8653;BME280;4364;52.426;9.424;2023-05-02T10:09:13;101898.66;;;10.37;54.83
8653;BME280;4364;52.426;9.424;2023-05-02T10:11:47;101900.22;;;10.22;54.31
8653;BME280;4364;52.426;9.424;2023-05-02T10:14:18;101896.69;;;10.21;55.08
8653;BME280;4364;52.426;9.424;2023-05-02T10:19:22;101915.13;;;10.48;53.79
8653;BME280;4364;52.426;9.424;2023-05-02T10:21:50;101908.16;;;10.23;54.47
8653;BME280;4364;52.426;9.424;2023-05-02T10:24:17;101906.94;;;10.31;54.08
8653;BME280;4364;52.426;9.424;2023-05-02T10:26:44;101905.28;;;10.30;53.96
8653;BME280;4364;52.426;9.424;2023-05-02T10:29:10;101907.94;;;10.59;54.44
8653;BME280;4364;52.426;9.424;2023-05-02T10:31:37;101901.84;;;10.51;54.16
8653;BME280;4364;52.426;9.424;2023-05-02T10:34:10;101903.16;;;10.66;53.96
8653;BME280;4364;52.426;9.424;2023-05-02T10:36:36;101904.22;;;10.82;53.26
8653;BME280;4364;52.426;9.424;2023-05-02T10:39:03;101901.50;;;10.82;53.05
8653;BME280;4364;52.426;9.424;2023-05-02T10:41:32;101911.22;;;10.94;53.01
8653;BME280;4364;52.426;9.424;2023-05-02T10:43:59;101905.63;;;10.84;52.20
8653;BME280;4364;52.426;9.424;2023-05-02T10:46:38;101906.13;;;11.20;50.83
8653;BME280;4364;52.426;9.424;2023-05-02T10:49:10;101911.97;;;11.29;51.25
8653;BME280;4364;52.426;9.424;2023-05-02T10:51:38;101915.53;;;11.29;50.73
8653;BME280;4364;52.426;9.424;2023-05-02T10:57:05;101928.91;;;11.14;49.90
8653;BME280;4364;52.426;9.424;2023-05-02T10:59:39;101912.81;;;11.12;49.69
8653;BME280;4364;52.426;9.424;2023-05-02T11:05:06;101924.63;;;11.40;49.22
8653;BME280;4364;52.426;9.424;2023-05-02T11:07:36;101920.81;;;11.19;49.17
8653;BME280;4364;52.426;9.424;2023-05-02T11:12:43;101930.72;;;11.47;49.17
8653;BME280;4364;52.426;9.424;2023-05-02T11:15:14;101929.47;;;11.55;48.44
8653;BME280;4364;52.426;9.424;2023-05-02T11:18:03;101933.84;;;11.56;47.60
8653;BME280;4364;52.426;9.424;2023-05-02T11:20:34;101939.13;;;11.46;48.65
8653;BME280;4364;52.426;9.424;2023-05-02T11:25:43;101934.47;;;11.02;47.38
8653;BME280;4364;52.426;9.424;2023-05-02T11:31:06;101939.19;;;10.73;47.09
8653;BME280;4364;52.426;9.424;2023-05-02T11:33:33;101944.34;;;11.08;47.33
8653;BME280;4364;52.426;9.424;2023-05-02T11:36:00;101940.34;;;11.55;47.60
8653;BME280;4364;52.426;9.424;2023-05-02T11:38:35;101943.13;;;11.38;46.29
8653;BME280;4364;52.426;9.424;2023-05-02T11:41:02;101947.72;;;11.16;46.55
8653;BME280;4364;52.426;9.424;2023-05-02T11:43:29;101945.84;;;10.99;46.50
8653;BME280;4364;52.426;9.424;2023-05-02T11:45:58;101941.41;;;11.32;46.36
8653;BME280;4364;52.426;9.424;2023-05-02T11:48:27;101943.44;;;11.20;46.29
8653;BME280;4364;52.426;9.424;2023-05-02T11:50:58;101945.88;;;11.38;45.08
8653;BME280;4364;52.426;9.424;2023-05-02T11:53:28;101940.53;;;11.48;45.68
8653;BME280;4364;52.426;9.424;2023-05-02T11:56:01;101943.91;;;11.56;45.15
8653;BME280;4364;52.426;9.424;2023-05-02T11:58:29;101951.19;;;11.94;44.46
8653;BME280;4364;52.426;9.424;2023-05-02T12:01:01;101950.19;;;12.00;43.39
8653;BME280;4364;52.426;9.424;2023-05-02T12:03:37;101942.41;;;12.14;42.80
8653;BME280;4364;52.426;9.424;2023-05-02T12:06:14;101947.56;;;12.38;44.15
8653;BME280;4364;52.426;9.424;2023-05-02T12:08:43;101948.38;;;12.71;43.12
8653;BME280;4364;52.426;9.424;2023-05-02T12:11:14;101947.66;;;13.23;42.08
8653;BME280;4364;52.426;9.424;2023-05-02T12:13:45;101949.25;;;13.14;41.73
8653;BME280;4364;52.426;9.424;2023-05-02T12:16:13;101946.97;;;13.38;42.67
8653;BME280;4364;52.426;9.424;2023-05-02T12:18:39;101962.09;;;12.81;43.17
8653;BME280;4364;52.426;9.424;2023-05-02T12:21:07;101956.69;;;12.86;44.46
8653;BME280;4364;52.426;9.424;2023-05-02T12:23:34;101970.50;;;12.74;44.98
8653;BME280;4364;52.426;9.424;2023-05-02T12:26:19;101970.50;;;13.07;43.70
8653;BME280;4364;52.426;9.424;2023-05-02T12:28:50;101966.66;;;13.08;43.32
8653;BME280;4364;52.426;9.424;2023-05-02T12:31:17;101987.03;;;12.90;42.77
8653;BME280;4364;52.426;9.424;2023-05-02T12:33:45;101983.03;;;12.70;43.18
8653;BME280;4364;52.426;9.424;2023-05-02T12:36:13;101979.56;;;12.48;42.97
8653;BME280;4364;52.426;9.424;2023-05-02T12:38:47;101987.94;;;12.68;43.51
8653;BME280;4364;52.426;9.424;2023-05-02T12:41:14;101993.09;;;12.37;43.46
8653;BME280;4364;52.426;9.424;2023-05-02T12:43:46;101997.59;;;12.21;43.86
8653;BME280;4364;52.426;9.424;2023-05-02T12:46:12;102002.94;;;12.11;43.58
8653;BME280;4364;52.426;9.424;2023-05-02T12:48:39;101997.47;;;12.11;43.99
8653;BME280;4364;52.426;9.424;2023-05-02T12:51:19;102009.59;;;11.98;45.22
8653;BME280;4364;52.426;9.424;2023-05-02T12:53:46;102019.16;;;12.01;45.36
8653;BME280;4364;52.426;9.424;2023-05-02T12:56:12;102014.47;;;11.96;44.35
8653;BME280;4364;52.426;9.424;2023-05-02T12:58:46;102017.84;;;12.03;43.88
8653;BME280;4364;52.426;9.424;2023-05-02T13:01:14;102015.53;;;12.17;43.24
8653;BME280;4364;52.426;9.424;2023-05-02T13:03:41;102019.75;;;12.57;42.83
8653;BME280;4364;52.426;9.424;2023-05-02T13:06:08;102013.81;;;12.33;42.84
8653;BME280;4364;52.426;9.424;2023-05-02T13:08:35;102018.50;;;12.38;43.88
8653;BME280;4364;52.426;9.424;2023-05-02T13:11:02;102022.63;;;12.18;43.97
8653;BME280;4364;52.426;9.424;2023-05-02T13:13:29;102019.50;;;12.04;44.68
8653;BME280;4364;52.426;9.424;2023-05-02T13:15:56;102017.50;;;12.22;44.61
8653;BME280;4364;52.426;9.424;2023-05-02T13:18:22;102012.03;;;12.22;44.34
8653;BME280;4364;52.426;9.424;2023-05-02T13:20:49;102010.66;;;11.97;43.58
8653;BME280;4364;52.426;9.424;2023-05-02T13:23:15;102021.25;;;11.94;44.59
8653;BME280;4364;52.426;9.424;2023-05-02T13:25:42;102015.09;;;12.03;44.23
8653;BME280;4364;52.426;9.424;2023-05-02T13:28:08;102030.44;;;12.10;44.89
8653;BME280;4364;52.426;9.424;2023-05-02T13:30:35;102037.91;;;12.19;45.19
8653;BME280;4364;52.426;9.424;2023-05-02T13:33:02;102023.84;;;12.05;44.99
8653;BME280;4364;52.426;9.424;2023-05-02T13:35:28;102020.63;;;12.09;44.93
8653;BME280;4364;52.426;9.424;2023-05-02T13:37:55;102025.69;;;12.00;45.49
8653;BME280;4364;52.426;9.424;2023-05-02T13:40:21;102031.22;;;12.05;45.90
8653;BME280;4364;52.426;9.424;2023-05-02T13:42:47;102032.41;;;12.14;45.95
8653;BME280;4364;52.426;9.424;2023-05-02T13:45:14;102035.06;;;12.09;46.00
8653;BME280;4364;52.426;9.424;2023-05-02T13:47:42;102034.81;;;12.11;45.89
8653;BME280;4364;52.426;9.424;2023-05-02T13:50:09;102034.44;;;12.02;45.54
8653;BME280;4364;52.426;9.424;2023-05-02T13:52:36;102031.13;;;12.22;46.01
8653;BME280;4364;52.426;9.424;2023-05-02T13:55:02;102041.00;;;12.06;45.48
8653;BME280;4364;52.426;9.424;2023-05-02T13:57:30;102044.97;;;11.93;46.67
8653;BME280;4364;52.426;9.424;2023-05-02T13:59:56;102044.63;;;11.90;46.60
8653;BME280;4364;52.426;9.424;2023-05-02T14:02:23;102050.81;;;11.85;46.65
8653;BME280;4364;52.426;9.424;2023-05-02T14:04:49;102049.16;;;11.62;46.76
8653;BME280;4364;52.426;9.424;2023-05-02T14:07:17;102041.97;;;11.56;45.87
8653;BME280;4364;52.426;9.424;2023-05-02T14:09:43;102054.47;;;11.74;45.33
8653;BME280;4364;52.426;9.424;2023-05-02T14:12:10;102053.78;;;12.00;44.90